sensor_id;sensor_type;location;lat;lon;timestamp;temperature;humidity
19680;DHT22;9989;48.962;9.182;2023-04-04T00:01:01;3.40;90.80
19680;DHT22;9989;48.962;9.182;2023-04-04T00:03:27;3.40;90.60
19680;DHT22;9989;48.962;9.182;2023-04-04T00:05:52;3.50;90.70
19680;DHT22;9989;48.962;9.182;2023-04-04T00:08:18;3.50;90.70
19680;DHT22;9989;48.962;9.182;2023-04-04T00:10:43;3.40;90.60
19680;DHT22;9989;48.962;9.182;2023-04-04T00:13:09;3.40;90.70
19680;DHT22;9989;48.962;9.182;2023-04-04T00:15:34;3.40;90.80
19680;DHT22;9989;48.962;9.182;2023-04-04T00:18:04;3.40;90.90
19680;DHT22;9989;48.962;9.182;2023-04-04T00:20:30;3.40;91.00
19680;DHT22;9989;48.962;9.182;2023-04-04T00:22:56;3.30;91.00
19680;DHT22;9989;48.962;9.182;2023-04-04T00:25:22;3.40;91.50
19680;DHT22;9989;48.962;9.182;2023-04-04T00:27:48;3.40;91.30
19680;DHT22;9989;48.962;9.182;2023-04-04T00:30:13;3.40;91.40
19680;DHT22;9989;48.962;9.182;2023-04-04T00:32:39;3.40;91.30
19680;DHT22;9989;48.962;9.182;2023-04-04T00:35:05;3.50;91.40
19680;DHT22;9989;48.962;9.182;2023-04-04T00:37:31;3.50;91.40
19680;DHT22;9989;48.962;9.182;2023-04-04T00:39:57;3.50;91.40
19680;DHT22;9989;48.962;9.182;2023-04-04T00:42:22;3.50;91.40
19680;DHT22;9989;48.962;9.182;2023-04-04T00:44:48;3.50;91.50
19680;DHT22;9989;48.962;9.182;2023-04-04T00:47:15;3.50;91.50
19680;DHT22;9989;48.962;9.182;2023-04-04T00:49:41;3.40;91.50
19680;DHT22;9989;48.962;9.182;2023-04-04T00:52:06;3.40;91.70
19680;DHT22;9989;48.962;9.182;2023-04-04T00:54:33;3.30;91.70
19680;DHT22;9989;48.962;9.182;2023-04-04T00:57:00;3.30;91.80
19680;DHT22;9989;48.962;9.182;2023-04-04T00:59:26;3.30;91.70
19680;DHT22;9989;48.962;9.182;2023-04-04T01:01:53;3.40;91.70
19680;DHT22;9989;48.962;9.182;2023-04-04T01:04:19;3.40;91.70
19680;DHT22;9989;48.962;9.182;2023-04-04T01:06:44;3.40;91.90
19680;DHT22;9989;48.962;9.182;2023-04-04T01:09:11;3.30;91.60
19680;DHT22;9989;48.962;9.182;2023-04-04T01:11:37;3.30;91.60
19680;DHT22;9989;48.962;9.182;2023-04-04T01:14:03;3.30;91.90
19680;DHT22;9989;48.962;9.182;2023-04-04T01:16:28;3.30;91.80
19680;DHT22;9989;48.962;9.182;2023-04-04T01:18:55;3.30;91.70
19680;DHT22;9989;48.962;9.182;2023-04-04T01:21:22;3.20;91.70
19680;DHT22;9989;48.962;9.182;2023-04-04T01:23:59;3.20;91.60
19680;DHT22;9989;48.962;9.182;2023-04-04T01:26:26;3.20;91.70
19680;DHT22;9989;48.962;9.182;2023-04-04T01:28:53;3.20;91.60
19680;DHT22;9989;48.962;9.182;2023-04-04T01:31:44;3.20;91.70
19680;DHT22;9989;48.962;9.182;2023-04-04T01:34:19;3.30;91.80
19680;DHT22;9989;48.962;9.182;2023-04-04T01:39:38;3.30;91.40
19680;DHT22;9989;48.962;9.182;2023-04-04T01:42:08;3.20;91.30
19680;DHT22;9989;48.962;9.182;2023-04-04T01:44:34;3.20;91.40
19680;DHT22;9989;48.962;9.182;2023-04-04T01:47:00;3.30;91.50
19680;DHT22;9989;48.962;9.182;2023-04-04T01:49:27;3.30;91.40
19680;DHT22;9989;48.962;9.182;2023-04-04T01:51:53;3.30;91.30
19680;DHT22;9989;48.962;9.182;2023-04-04T01:54:19;3.30;91.30
19680;DHT22;9989;48.962;9.182;2023-04-04T01:56:45;3.30;91.40
19680;DHT22;9989;48.962;9.182;2023-04-04T01:59:11;3.20;91.50
19680;DHT22;9989;48.962;9.182;2023-04-04T02:01:36;3.20;91.70
19680;DHT22;9989;48.962;9.182;2023-04-04T02:04:03;3.20;91.70
19680;DHT22;9989;48.962;9.182;2023-04-04T02:06:29;3.20;91.70
19680;DHT22;9989;48.962;9.182;2023-04-04T02:08:54;3.20;91.70
19680;DHT22;9989;48.962;9.182;2023-04-04T02:11:21;3.10;91.90
19680;DHT22;9989;48.962;9.182;2023-04-04T02:13:50;3.00;92.10
19680;DHT22;9989;48.962;9.182;2023-04-04T02:16:15;3.00;92.20
19680;DHT22;9989;48.962;9.182;2023-04-04T02:18:41;3.00;92.20
19680;DHT22;9989;48.962;9.182;2023-04-04T02:21:07;3.00;92.20
19680;DHT22;9989;48.962;9.182;2023-04-04T02:23:33;2.90;92.30
19680;DHT22;9989;48.962;9.182;2023-04-04T02:25:58;3.00;92.30
19680;DHT22;9989;48.962;9.182;2023-04-04T02:28:24;2.90;92.50
19680;DHT22;9989;48.962;9.182;2023-04-04T02:30:52;2.90;92.30
19680;DHT22;9989;48.962;9.182;2023-04-04T02:33:17;2.90;92.30
19680;DHT22;9989;48.962;9.182;2023-04-04T02:35:43;2.90;92.40
19680;DHT22;9989;48.962;9.182;2023-04-04T02:38:08;2.90;92.50
19680;DHT22;9989;48.962;9.182;2023-04-04T02:40:34;2.90;92.50
19680;DHT22;9989;48.962;9.182;2023-04-04T02:43:03;2.90;92.60
19680;DHT22;9989;48.962;9.182;2023-04-04T02:45:29;2.90;92.60
19680;DHT22;9989;48.962;9.182;2023-04-04T02:47:55;2.90;92.70
19680;DHT22;9989;48.962;9.182;2023-04-04T02:50:20;2.80;92.70
19680;DHT22;9989;48.962;9.182;2023-04-04T02:52:46;2.80;92.90
19680;DHT22;9989;48.962;9.182;2023-04-04T02:55:12;2.80;93.10
19680;DHT22;9989;48.962;9.182;2023-04-04T02:57:37;2.80;93.20
19680;DHT22;9989;48.962;9.182;2023-04-04T03:00:03;2.70;93.40
19680;DHT22;9989;48.962;9.182;2023-04-04T03:02:29;2.70;93.60
19680;DHT22;9989;48.962;9.182;2023-04-04T03:04:55;2.70;93.80
19680;DHT22;9989;48.962;9.182;2023-04-04T03:07:20;2.70;93.80
19680;DHT22;9989;48.962;9.182;2023-04-04T03:09:47;2.70;93.90
19680;DHT22;9989;48.962;9.182;2023-04-04T03:12:13;2.70;93.90
19680;DHT22;9989;48.962;9.182;2023-04-04T03:14:38;2.70;93.90
19680;DHT22;9989;48.962;9.182;2023-04-04T03:17:06;2.60;94.00
19680;DHT22;9989;48.962;9.182;2023-04-04T03:19:34;2.60;94.10
19680;DHT22;9989;48.962;9.182;2023-04-04T03:22:00;2.50;94.20
19680;DHT22;9989;48.962;9.182;2023-04-04T03:24:26;2.50;94.40
19680;DHT22;9989;48.962;9.182;2023-04-04T03:26:52;2.50;94.40
19680;DHT22;9989;48.962;9.182;2023-04-04T03:29:18;2.50;94.50
19680;DHT22;9989;48.962;9.182;2023-04-04T03:31:43;2.50;94.70
19680;DHT22;9989;48.962;9.182;2023-04-04T03:34:10;2.40;94.70
19680;DHT22;9989;48.962;9.182;2023-04-04T03:36:36;2.40;94.90
19680;DHT22;9989;48.962;9.182;2023-04-04T03:39:04;2.40;95.00
19680;DHT22;9989;48.962;9.182;2023-04-04T03:41:30;2.40;95.10
19680;DHT22;9989;48.962;9.182;2023-04-04T03:43:55;2.40;95.20
19680;DHT22;9989;48.962;9.182;2023-04-04T03:46:21;2.40;95.30
19680;DHT22;9989;48.962;9.182;2023-04-04T03:48:46;2.40;95.50
19680;DHT22;9989;48.962;9.182;2023-04-04T03:51:12;2.40;95.40
19680;DHT22;9989;48.962;9.182;2023-04-04T03:53:37;2.40;95.50
19680;DHT22;9989;48.962;9.182;2023-04-04T03:56:03;2.30;95.60
19680;DHT22;9989;48.962;9.182;2023-04-04T03:58:29;2.30;95.60
19680;DHT22;9989;48.962;9.182;2023-04-04T04:00:55;2.20;95.80
19680;DHT22;9989;48.962;9.182;2023-04-04T04:03:20;2.20;95.90
19680;DHT22;9989;48.962;9.182;2023-04-04T04:05:46;2.20;96.10
19680;DHT22;9989;48.962;9.182;2023-04-04T04:08:12;2.20;96.10
19680;DHT22;9989;48.962;9.182;2023-04-04T04:10:38;2.20;96.20
19680;DHT22;9989;48.962;9.182;2023-04-04T04:13:03;2.20;96.20
19680;DHT22;9989;48.962;9.182;2023-04-04T04:15:29;2.10;96.40
19680;DHT22;9989;48.962;9.182;2023-04-04T04:17:55;2.10;96.50
19680;DHT22;9989;48.962;9.182;2023-04-04T04:20:21;2.00;96.70
19680;DHT22;9989;48.962;9.182;2023-04-04T04:22:47;2.00;96.90
19680;DHT22;9989;48.962;9.182;2023-04-04T04:25:16;1.90;97.20
19680;DHT22;9989;48.962;9.182;2023-04-04T04:27:42;1.80;97.50
19680;DHT22;9989;48.962;9.182;2023-04-04T04:30:09;1.80;97.70
19680;DHT22;9989;48.962;9.182;2023-04-04T04:32:34;1.70;97.80
19680;DHT22;9989;48.962;9.182;2023-04-04T04:35:00;1.60;98.10
19680;DHT22;9989;48.962;9.182;2023-04-04T04:37:25;1.50;98.30
19680;DHT22;9989;48.962;9.182;2023-04-04T04:39:52;1.50;98.50
19680;DHT22;9989;48.962;9.182;2023-04-04T04:42:18;1.50;98.60
19680;DHT22;9989;48.962;9.182;2023-04-04T04:44:43;1.40;98.60
19680;DHT22;9989;48.962;9.182;2023-04-04T04:47:09;1.40;98.80
19680;DHT22;9989;48.962;9.182;2023-04-04T04:49:35;1.40;98.90
19680;DHT22;9989;48.962;9.182;2023-04-04T04:52:00;1.30;98.90
19680;DHT22;9989;48.962;9.182;2023-04-04T04:54:27;1.30;99.00
19680;DHT22;9989;48.962;9.182;2023-04-04T04:56:52;1.30;99.10
19680;DHT22;9989;48.962;9.182;2023-04-04T04:59:18;1.30;99.00
19680;DHT22;9989;48.962;9.182;2023-04-04T05:01:43;1.30;99.10
19680;DHT22;9989;48.962;9.182;2023-04-04T05:04:09;1.30;99.00
19680;DHT22;9989;48.962;9.182;2023-04-04T05:06:35;1.40;99.10
19680;DHT22;9989;48.962;9.182;2023-04-04T05:09:05;1.40;99.10
19680;DHT22;9989;48.962;9.182;2023-04-04T05:11:30;1.40;99.10
19680;DHT22;9989;48.962;9.182;2023-04-04T05:13:56;1.40;99.00
19680;DHT22;9989;48.962;9.182;2023-04-04T05:16:23;1.50;99.00
19680;DHT22;9989;48.962;9.182;2023-04-04T05:18:49;1.50;99.00
19680;DHT22;9989;48.962;9.182;2023-04-04T05:21:15;1.50;98.90
19680;DHT22;9989;48.962;9.182;2023-04-04T05:23:40;1.60;98.90
19680;DHT22;9989;48.962;9.182;2023-04-04T05:26:06;1.60;98.80
19680;DHT22;9989;48.962;9.182;2023-04-04T05:28:32;1.70;98.60
19680;DHT22;9989;48.962;9.182;2023-04-04T05:30:58;1.70;98.60
19680;DHT22;9989;48.962;9.182;2023-04-04T05:33:23;1.80;98.50
19680;DHT22;9989;48.962;9.182;2023-04-04T05:35:49;1.90;98.30
19680;DHT22;9989;48.962;9.182;2023-04-04T05:38:15;2.00;98.10
19680;DHT22;9989;48.962;9.182;2023-04-04T05:40:40;2.10;97.90
19680;DHT22;9989;48.962;9.182;2023-04-04T05:43:06;2.20;97.80
19680;DHT22;9989;48.962;9.182;2023-04-04T05:45:32;2.30;97.70
19680;DHT22;9989;48.962;9.182;2023-04-04T05:47:58;2.40;97.70
19680;DHT22;9989;48.962;9.182;2023-04-04T05:50:23;2.40;97.50
19680;DHT22;9989;48.962;9.182;2023-04-04T05:52:49;2.50;97.10
19680;DHT22;9989;48.962;9.182;2023-04-04T05:55:17;2.50;96.80
19680;DHT22;9989;48.962;9.182;2023-04-04T05:57:50;2.60;96.50
19680;DHT22;9989;48.962;9.182;2023-04-04T06:00:17;2.70;96.40
19680;DHT22;9989;48.962;9.182;2023-04-04T06:02:43;2.70;96.20
19680;DHT22;9989;48.962;9.182;2023-04-04T06:05:09;2.80;96.10
19680;DHT22;9989;48.962;9.182;2023-04-04T06:07:35;2.90;96.00
19680;DHT22;9989;48.962;9.182;2023-04-04T06:10:00;2.90;95.90
19680;DHT22;9989;48.962;9.182;2023-04-04T06:12:26;3.00;95.90
19680;DHT22;9989;48.962;9.182;2023-04-04T06:14:52;3.00;95.40
19680;DHT22;9989;48.962;9.182;2023-04-04T06:17:17;3.00;95.40
19680;DHT22;9989;48.962;9.182;2023-04-04T06:19:43;3.10;95.00
19680;DHT22;9989;48.962;9.182;2023-04-04T06:22:08;3.10;95.00
19680;DHT22;9989;48.962;9.182;2023-04-04T06:24:34;3.20;95.00
19680;DHT22;9989;48.962;9.182;2023-04-04T06:27:00;3.20;94.80
19680;DHT22;9989;48.962;9.182;2023-04-04T06:29:26;3.30;94.70
19680;DHT22;9989;48.962;9.182;2023-04-04T06:31:51;3.40;94.70
19680;DHT22;9989;48.962;9.182;2023-04-04T06:34:17;3.50;94.40
19680;DHT22;9989;48.962;9.182;2023-04-04T06:36:42;3.60;94.30
19680;DHT22;9989;48.962;9.182;2023-04-04T06:39:08;3.60;94.10
19680;DHT22;9989;48.962;9.182;2023-04-04T06:41:33;3.70;94.00
19680;DHT22;9989;48.962;9.182;2023-04-04T06:43:59;3.80;94.00
19680;DHT22;9989;48.962;9.182;2023-04-04T06:46:25;3.80;93.80
19680;DHT22;9989;48.962;9.182;2023-04-04T06:48:51;3.90;93.50
19680;DHT22;9989;48.962;9.182;2023-04-04T06:51:17;4.00;93.40
19680;DHT22;9989;48.962;9.182;2023-04-04T06:53:42;4.00;93.70
19680;DHT22;9989;48.962;9.182;2023-04-04T06:56:08;4.10;93.40
19680;DHT22;9989;48.962;9.182;2023-04-04T06:58:34;4.10;93.50
19680;DHT22;9989;48.962;9.182;2023-04-04T07:01:00;4.20;93.30
19680;DHT22;9989;48.962;9.182;2023-04-04T07:03:26;4.20;92.60
19680;DHT22;9989;48.962;9.182;2023-04-04T07:05:52;4.20;92.80
19680;DHT22;9989;48.962;9.182;2023-04-04T07:08:17;4.30;92.00
19680;DHT22;9989;48.962;9.182;2023-04-04T07:10:43;4.30;91.30
19680;DHT22;9989;48.962;9.182;2023-04-04T07:13:09;4.30;90.60
19680;DHT22;9989;48.962;9.182;2023-04-04T07:15:35;4.30;90.80
19680;DHT22;9989;48.962;9.182;2023-04-04T07:18:01;4.40;91.00
19680;DHT22;9989;48.962;9.182;2023-04-04T07:20:26;4.50;90.50
19680;DHT22;9989;48.962;9.182;2023-04-04T07:22:53;4.50;89.70
19680;DHT22;9989;48.962;9.182;2023-04-04T07:25:18;4.50;88.60
19680;DHT22;9989;48.962;9.182;2023-04-04T07:27:44;4.50;88.80
19680;DHT22;9989;48.962;9.182;2023-04-04T07:30:10;4.60;89.00
19680;DHT22;9989;48.962;9.182;2023-04-04T07:32:36;4.60;89.60
19680;DHT22;9989;48.962;9.182;2023-04-04T07:35:03;4.70;88.20
19680;DHT22;9989;48.962;9.182;2023-04-04T07:37:29;4.80;89.00
19680;DHT22;9989;48.962;9.182;2023-04-04T07:39:55;4.90;88.00
19680;DHT22;9989;48.962;9.182;2023-04-04T07:42:21;4.90;86.40
19680;DHT22;9989;48.962;9.182;2023-04-04T07:44:50;4.90;86.10
19680;DHT22;9989;48.962;9.182;2023-04-04T07:47:19;4.90;86.90
19680;DHT22;9989;48.962;9.182;2023-04-04T07:49:45;5.00;88.00
19680;DHT22;9989;48.962;9.182;2023-04-04T07:52:11;5.20;85.70
19680;DHT22;9989;48.962;9.182;2023-04-04T07:54:37;5.20;85.60
19680;DHT22;9989;48.962;9.182;2023-04-04T07:57:04;5.20;85.00
19680;DHT22;9989;48.962;9.182;2023-04-04T07:59:31;5.30;86.30
19680;DHT22;9989;48.962;9.182;2023-04-04T08:01:57;5.40;85.10
19680;DHT22;9989;48.962;9.182;2023-04-04T08:04:22;5.40;85.50
19680;DHT22;9989;48.962;9.182;2023-04-04T08:06:48;5.60;85.60
19680;DHT22;9989;48.962;9.182;2023-04-04T08:09:14;5.70;83.50
19680;DHT22;9989;48.962;9.182;2023-04-04T08:11:40;5.70;83.50
19680;DHT22;9989;48.962;9.182;2023-04-04T08:14:05;5.70;82.30
19680;DHT22;9989;48.962;9.182;2023-04-04T08:16:31;5.70;82.00
19680;DHT22;9989;48.962;9.182;2023-04-04T08:18:58;5.80;83.50
19680;DHT22;9989;48.962;9.182;2023-04-04T08:21:24;5.90;83.50
19680;DHT22;9989;48.962;9.182;2023-04-04T08:23:50;6.10;82.00
19680;DHT22;9989;48.962;9.182;2023-04-04T08:26:15;6.20;82.00
19680;DHT22;9989;48.962;9.182;2023-04-04T08:28:41;6.40;81.80
19680;DHT22;9989;48.962;9.182;2023-04-04T08:31:07;6.40;80.10
19680;DHT22;9989;48.962;9.182;2023-04-04T08:33:34;6.50;79.40
19680;DHT22;9989;48.962;9.182;2023-04-04T08:36:00;6.60;78.70
19680;DHT22;9989;48.962;9.182;2023-04-04T08:38:25;6.70;79.70
19680;DHT22;9989;48.962;9.182;2023-04-04T08:40:51;6.80;79.30
19680;DHT22;9989;48.962;9.182;2023-04-04T08:43:18;6.90;78.60
19680;DHT22;9989;48.962;9.182;2023-04-04T08:45:45;7.00;78.70
19680;DHT22;9989;48.962;9.182;2023-04-04T08:48:16;7.10;78.60
19680;DHT22;9989;48.962;9.182;2023-04-04T08:50:43;7.30;78.00
19680;DHT22;9989;48.962;9.182;2023-04-04T08:53:10;7.50;77.90
19680;DHT22;9989;48.962;9.182;2023-04-04T08:55:39;7.60;76.20
19680;DHT22;9989;48.962;9.182;2023-04-04T08:58:05;7.60;74.50
19680;DHT22;9989;48.962;9.182;2023-04-04T09:00:31;7.70;75.30
19680;DHT22;9989;48.962;9.182;2023-04-04T09:03:17;7.80;75.60
19680;DHT22;9989;48.962;9.182;2023-04-04T09:05:44;8.00;76.10
19680;DHT22;9989;48.962;9.182;2023-04-04T09:08:12;8.20;73.90
19680;DHT22;9989;48.962;9.182;2023-04-04T09:10:38;8.40;74.00
19680;DHT22;9989;48.962;9.182;2023-04-04T09:13:05;8.40;72.10
19680;DHT22;9989;48.962;9.182;2023-04-04T09:15:31;8.60;74.70
19680;DHT22;9989;48.962;9.182;2023-04-04T09:17:58;8.80;74.40
19680;DHT22;9989;48.962;9.182;2023-04-04T09:20:40;9.10;73.10
19680;DHT22;9989;48.962;9.182;2023-04-04T09:23:11;9.30;69.10
19680;DHT22;9989;48.962;9.182;2023-04-04T09:25:45;9.50;67.50
19680;DHT22;9989;48.962;9.182;2023-04-04T09:28:14;9.60;67.90
19680;DHT22;9989;48.962;9.182;2023-04-04T09:30:40;9.50;66.20
19680;DHT22;9989;48.962;9.182;2023-04-04T09:33:06;9.50;64.80
19680;DHT22;9989;48.962;9.182;2023-04-04T09:35:35;9.60;66.40
19680;DHT22;9989;48.962;9.182;2023-04-04T09:38:05;9.60;66.70
19680;DHT22;9989;48.962;9.182;2023-04-04T09:40:31;9.60;66.70
19680;DHT22;9989;48.962;9.182;2023-04-04T09:43:00;9.80;67.50
19680;DHT22;9989;48.962;9.182;2023-04-04T09:45:28;9.90;66.70
19680;DHT22;9989;48.962;9.182;2023-04-04T09:47:55;10.10;64.90
19680;DHT22;9989;48.962;9.182;2023-04-04T09:50:22;10.30;64.60
19680;DHT22;9989;48.962;9.182;2023-04-04T09:52:49;10.50;63.30
19680;DHT22;9989;48.962;9.182;2023-04-04T09:55:15;10.60;62.60
19680;DHT22;9989;48.962;9.182;2023-04-04T09:57:41;10.80;61.90
19680;DHT22;9989;48.962;9.182;2023-04-04T10:00:07;10.90;63.40
19680;DHT22;9989;48.962;9.182;2023-04-04T10:02:36;11.00;62.10
19680;DHT22;9989;48.962;9.182;2023-04-04T10:05:03;11.10;63.80
19680;DHT22;9989;48.962;9.182;2023-04-04T10:07:30;11.30;63.20
19680;DHT22;9989;48.962;9.182;2023-04-04T10:09:56;11.50;60.60
19680;DHT22;9989;48.962;9.182;2023-04-04T10:12:25;11.60;60.10
19680;DHT22;9989;48.962;9.182;2023-04-04T10:14:57;11.70;59.60
19680;DHT22;9989;48.962;9.182;2023-04-04T10:17:24;11.70;58.10
19680;DHT22;9989;48.962;9.182;2023-04-04T10:19:51;11.60;59.40
19680;DHT22;9989;48.962;9.182;2023-04-04T10:22:19;11.70;58.80
19680;DHT22;9989;48.962;9.182;2023-04-04T10:24:46;11.80;59.80
19680;DHT22;9989;48.962;9.182;2023-04-04T10:27:12;11.90;57.80
19680;DHT22;9989;48.962;9.182;2023-04-04T10:29:37;11.90;59.50
19680;DHT22;9989;48.962;9.182;2023-04-04T10:32:08;11.90;57.80
19680;DHT22;9989;48.962;9.182;2023-04-04T10:34:44;12.00;59.50
19680;DHT22;9989;48.962;9.182;2023-04-04T10:37:19;12.10;57.60
19680;DHT22;9989;48.962;9.182;2023-04-04T10:39:54;12.30;57.50
19680;DHT22;9989;48.962;9.182;2023-04-04T10:42:22;12.40;58.90
19680;DHT22;9989;48.962;9.182;2023-04-04T10:44:49;12.60;57.30
19680;DHT22;9989;48.962;9.182;2023-04-04T10:47:22;12.70;56.40
19680;DHT22;9989;48.962;9.182;2023-04-04T10:49:49;12.90;55.80
19680;DHT22;9989;48.962;9.182;2023-04-04T10:52:21;13.00;56.70
19680;DHT22;9989;48.962;9.182;2023-04-04T10:54:56;13.20;56.70
19680;DHT22;9989;48.962;9.182;2023-04-04T10:57:23;13.30;55.70
19680;DHT22;9989;48.962;9.182;2023-04-04T10:59:57;13.40;54.90
19680;DHT22;9989;48.962;9.182;2023-04-04T11:05:14;13.30;55.50
19680;DHT22;9989;48.962;9.182;2023-04-04T11:07:44;13.30;56.60
19680;DHT22;9989;48.962;9.182;2023-04-04T11:10:15;13.40;57.20
19680;DHT22;9989;48.962;9.182;2023-04-04T11:12:45;13.40;57.00
19680;DHT22;9989;48.962;9.182;2023-04-04T11:15:14;13.60;56.20
19680;DHT22;9989;48.962;9.182;2023-04-04T11:20:18;13.70;53.60
19680;DHT22;9989;48.962;9.182;2023-04-04T11:22:44;13.60;53.00
19680;DHT22;9989;48.962;9.182;2023-04-04T11:25:32;13.70;56.70
19680;DHT22;9989;48.962;9.182;2023-04-04T11:27:59;13.90;55.60
19680;DHT22;9989;48.962;9.182;2023-04-04T11:30:28;14.00;54.90
19680;DHT22;9989;48.962;9.182;2023-04-04T11:33:01;14.10;56.20
19680;DHT22;9989;48.962;9.182;2023-04-04T11:35:26;14.40;55.20
19680;DHT22;9989;48.962;9.182;2023-04-04T11:40:19;14.70;56.70
19680;DHT22;9989;48.962;9.182;2023-04-04T11:42:50;14.80;55.30
19680;DHT22;9989;48.962;9.182;2023-04-04T11:45:19;14.90;52.90
19680;DHT22;9989;48.962;9.182;2023-04-04T11:47:46;14.80;53.90
19680;DHT22;9989;48.962;9.182;2023-04-04T11:50:14;14.70;53.10
19680;DHT22;9989;48.962;9.182;2023-04-04T11:52:41;14.60;53.40
19680;DHT22;9989;48.962;9.182;2023-04-04T11:55:20;14.70;52.90
19680;DHT22;9989;48.962;9.182;2023-04-04T11:57:48;14.70;54.40
19680;DHT22;9989;48.962;9.182;2023-04-04T12:00:32;15.00;52.80
19680;DHT22;9989;48.962;9.182;2023-04-04T12:03:03;15.40;54.10
19680;DHT22;9989;48.962;9.182;2023-04-04T12:05:30;15.60;50.90
19680;DHT22;9989;48.962;9.182;2023-04-04T12:07:56;15.70;51.90
19680;DHT22;9989;48.962;9.182;2023-04-04T12:10:22;15.80;50.10
19680;DHT22;9989;48.962;9.182;2023-04-04T12:12:48;15.60;49.50
19680;DHT22;9989;48.962;9.182;2023-04-04T12:15:14;15.50;49.10
19680;DHT22;9989;48.962;9.182;2023-04-04T12:17:41;15.50;51.40
19680;DHT22;9989;48.962;9.182;2023-04-04T12:20:14;15.80;50.10
19680;DHT22;9989;48.962;9.182;2023-04-04T12:22:40;16.10;49.00
19680;DHT22;9989;48.962;9.182;2023-04-04T12:25:06;16.30;49.20
19680;DHT22;9989;48.962;9.182;2023-04-04T12:27:32;16.50;48.90
19680;DHT22;9989;48.962;9.182;2023-04-04T12:29:59;16.50;49.40
19680;DHT22;9989;48.962;9.182;2023-04-04T12:32:25;16.50;48.60
19680;DHT22;9989;48.962;9.182;2023-04-04T12:34:51;16.50;49.80
19680;DHT22;9989;48.962;9.182;2023-04-04T12:37:19;16.50;50.00
19680;DHT22;9989;48.962;9.182;2023-04-04T12:39:47;16.60;48.90
19680;DHT22;9989;48.962;9.182;2023-04-04T12:42:20;16.70;49.60
19680;DHT22;9989;48.962;9.182;2023-04-04T12:44:49;16.80;49.00
19680;DHT22;9989;48.962;9.182;2023-04-04T12:47:16;16.80;50.40
19680;DHT22;9989;48.962;9.182;2023-04-04T12:49:44;16.90;50.00
19680;DHT22;9989;48.962;9.182;2023-04-04T12:52:20;16.90;50.90
19680;DHT22;9989;48.962;9.182;2023-04-04T12:54:47;16.90;49.30
19680;DHT22;9989;48.962;9.182;2023-04-04T12:57:23;17.00;47.90
19680;DHT22;9989;48.962;9.182;2023-04-04T12:59:49;17.00;49.70
19680;DHT22;9989;48.962;9.182;2023-04-04T13:02:20;17.00;50.20
19680;DHT22;9989;48.962;9.182;2023-04-04T13:04:47;17.00;49.30
19680;DHT22;9989;48.962;9.182;2023-04-04T13:07:24;17.00;49.10
19680;DHT22;9989;48.962;9.182;2023-04-04T13:09:52;17.10;48.70
19680;DHT22;9989;48.962;9.182;2023-04-04T13:12:17;17.30;46.90
19680;DHT22;9989;48.962;9.182;2023-04-04T13:15:03;17.20;47.30
19680;DHT22;9989;48.962;9.182;2023-04-04T13:17:57;17.30;46.60
19680;DHT22;9989;48.962;9.182;2023-04-04T13:20:38;17.10;47.00
19680;DHT22;9989;48.962;9.182;2023-04-04T13:23:03;16.90;47.70
19680;DHT22;9989;48.962;9.182;2023-04-04T13:25:31;16.90;49.20
19680;DHT22;9989;48.962;9.182;2023-04-04T13:27:56;17.00;50.20
19680;DHT22;9989;48.962;9.182;2023-04-04T13:30:23;17.20;49.70
19680;DHT22;9989;48.962;9.182;2023-04-04T13:32:48;17.30;48.70
19680;DHT22;9989;48.962;9.182;2023-04-04T13:35:17;17.50;47.50
19680;DHT22;9989;48.962;9.182;2023-04-04T13:37:43;17.60;47.90
19680;DHT22;9989;48.962;9.182;2023-04-04T13:40:09;17.90;48.80
19680;DHT22;9989;48.962;9.182;2023-04-04T13:42:35;18.10;46.00
19680;DHT22;9989;48.962;9.182;2023-04-04T13:45:00;18.20;47.10
19680;DHT22;9989;48.962;9.182;2023-04-04T13:47:26;18.10;45.40
19680;DHT22;9989;48.962;9.182;2023-04-04T13:49:53;18.10;45.30
19680;DHT22;9989;48.962;9.182;2023-04-04T13:52:19;18.20;45.40
19680;DHT22;9989;48.962;9.182;2023-04-04T13:54:44;18.30;44.70
19680;DHT22;9989;48.962;9.182;2023-04-04T13:57:10;18.30;46.60
19680;DHT22;9989;48.962;9.182;2023-04-04T13:59:36;18.40;45.60
19680;DHT22;9989;48.962;9.182;2023-04-04T14:02:02;18.40;45.50
19680;DHT22;9989;48.962;9.182;2023-04-04T14:04:28;18.40;45.80
19680;DHT22;9989;48.962;9.182;2023-04-04T14:06:54;18.60;45.10
19680;DHT22;9989;48.962;9.182;2023-04-04T14:09:19;18.70;45.70
19680;DHT22;9989;48.962;9.182;2023-04-04T14:11:45;18.80;43.80
19680;DHT22;9989;48.962;9.182;2023-04-04T14:14:11;18.70;43.50
19680;DHT22;9989;48.962;9.182;2023-04-04T14:16:36;18.70;44.20
19680;DHT22;9989;48.962;9.182;2023-04-04T14:19:02;18.30;43.70
19680;DHT22;9989;48.962;9.182;2023-04-04T14:21:27;18.00;44.70
19680;DHT22;9989;48.962;9.182;2023-04-04T14:23:53;17.60;44.30
19680;DHT22;9989;48.962;9.182;2023-04-04T14:26:18;17.20;46.60
19680;DHT22;9989;48.962;9.182;2023-04-04T14:28:44;17.00;47.70
19680;DHT22;9989;48.962;9.182;2023-04-04T14:31:10;17.50;48.10
19680;DHT22;9989;48.962;9.182;2023-04-04T14:33:36;18.40;46.70
19680;DHT22;9989;48.962;9.182;2023-04-04T14:36:02;19.30;44.30
19680;DHT22;9989;48.962;9.182;2023-04-04T14:38:27;20.20;42.50
19680;DHT22;9989;48.962;9.182;2023-04-04T14:40:53;20.90;41.90
19680;DHT22;9989;48.962;9.182;2023-04-04T14:43:18;21.40;41.20
19680;DHT22;9989;48.962;9.182;2023-04-04T14:45:44;21.60;38.80
19680;DHT22;9989;48.962;9.182;2023-04-04T14:48:09;21.60;40.10
19680;DHT22;9989;48.962;9.182;2023-04-04T14:50:35;21.60;42.20
19680;DHT22;9989;48.962;9.182;2023-04-04T14:53:02;21.70;40.80
19680;DHT22;9989;48.962;9.182;2023-04-04T14:55:28;22.00;39.60
19680;DHT22;9989;48.962;9.182;2023-04-04T14:57:54;22.30;38.10
19680;DHT22;9989;48.962;9.182;2023-04-04T15:00:19;22.00;37.80
19680;DHT22;9989;48.962;9.182;2023-04-04T15:02:47;21.50;37.80
19680;DHT22;9989;48.962;9.182;2023-04-04T15:05:14;21.30;38.80
19680;DHT22;9989;48.962;9.182;2023-04-04T15:07:40;21.80;38.70
19680;DHT22;9989;48.962;9.182;2023-04-04T15:10:06;22.60;38.00
19680;DHT22;9989;48.962;9.182;2023-04-04T15:12:32;23.50;36.90
19680;DHT22;9989;48.962;9.182;2023-04-04T15:14:58;24.40;36.60
19680;DHT22;9989;48.962;9.182;2023-04-04T15:17:24;24.60;35.70
19680;DHT22;9989;48.962;9.182;2023-04-04T15:19:49;24.80;35.10
19680;DHT22;9989;48.962;9.182;2023-04-04T15:22:15;25.10;35.20
19680;DHT22;9989;48.962;9.182;2023-04-04T15:24:40;25.20;33.50
19680;DHT22;9989;48.962;9.182;2023-04-04T15:27:06;25.40;34.00
19680;DHT22;9989;48.962;9.182;2023-04-04T15:29:31;25.80;33.30
19680;DHT22;9989;48.962;9.182;2023-04-04T15:31:57;25.80;33.60
19680;DHT22;9989;48.962;9.182;2023-04-04T15:34:23;25.50;32.70
19680;DHT22;9989;48.962;9.182;2023-04-04T15:36:49;24.90;33.50
19680;DHT22;9989;48.962;9.182;2023-04-04T15:39:16;24.70;33.70
19680;DHT22;9989;48.962;9.182;2023-04-04T15:41:42;24.70;34.00
19680;DHT22;9989;48.962;9.182;2023-04-04T15:44:07;24.70;33.90
19680;DHT22;9989;48.962;9.182;2023-04-04T15:46:33;24.90;33.50
19680;DHT22;9989;48.962;9.182;2023-04-04T15:48:59;25.00;32.50
19680;DHT22;9989;48.962;9.182;2023-04-04T15:51:25;25.10;32.70
19680;DHT22;9989;48.962;9.182;2023-04-04T15:53:55;25.10;31.40
19680;DHT22;9989;48.962;9.182;2023-04-04T15:56:21;25.10;31.70
19680;DHT22;9989;48.962;9.182;2023-04-04T15:58:46;24.70;31.30
19680;DHT22;9989;48.962;9.182;2023-04-04T16:01:12;24.30;32.40
19680;DHT22;9989;48.962;9.182;2023-04-04T16:03:38;24.40;32.30